Rechercher aéroport 
image banner adimage banner adimage banner ad
image banner ad

4PS2 - Sci Graterford

Situé à Graterford, United States

ICAO - 4PS2, IATA -

Données fournies par Airmate  

Information générale

Coordonnées: N40°13'56" W75°26'11"
Élévation : 283 feet MSL.
 
Voir autres Aéroports à Pennsylvania

Données opérationnelles

Special qualification required
Heure actuelle UTC:
Heure actuelle locale:
Météo à : KPTW - Heritage Field ( 10 km )
METAR: KPTW 152154Z AUTO 34006KT 10SM FEW047 SCT070 BKN095 23/14 A2980 RMK AO2 SLP087 T02280139
Voir NOTAMs / SUP AIP / TFR affectant cet aéroport [VIEW]
Fréquences de communication: [VIEW]

Pistes:

Coordonnées de l'aéroport

Adresse: Graterford United States

Vue satellite de 4PS2